sensor_id;sensor_type;location;lat;lon;timestamp;P1;durP1;ratioP1;P2;durP2;ratioP2
39882;SDS011;55824;52.220;21.040;2022-11-04T00:01:45;10.68;;;7.70;;
39882;SDS011;55824;52.220;21.040;2022-11-04T00:04:12;9.50;;;6.55;;
39882;SDS011;55824;52.220;21.040;2022-11-04T00:06:38;9.52;;;7.35;;
39882;SDS011;55824;52.220;21.040;2022-11-04T00:09:05;9.35;;;7.00;;
39882;SDS011;55824;52.220;21.040;2022-11-04T00:11:32;7.68;;;6.03;;
39882;SDS011;55824;52.220;21.040;2022-11-04T00:14:17;8.85;;;6.78;;
39882;SDS011;55824;52.220;21.040;2022-11-04T00:16:43;10.32;;;6.68;;
39882;SDS011;55824;52.220;21.040;2022-11-04T00:19:28;9.38;;;7.15;;
39882;SDS011;55824;52.220;21.040;2022-11-04T00:22:14;9.15;;;6.85;;
39882;SDS011;55824;52.220;21.040;2022-11-04T00:24:59;8.80;;;7.03;;
39882;SDS011;55824;52.220;21.040;2022-11-04T00:27:43;9.63;;;6.90;;
39882;SDS011;55824;52.220;21.040;2022-11-04T00:30:28;10.00;;;6.18;;
39882;SDS011;55824;52.220;21.040;2022-11-04T00:32:54;9.23;;;6.63;;
39882;SDS011;55824;52.220;21.040;2022-11-04T00:35:39;9.15;;;6.32;;
39882;SDS011;55824;52.220;21.040;2022-11-04T00:38:04;10.10;;;6.75;;
39882;SDS011;55824;52.220;21.040;2022-11-04T00:40:30;8.80;;;6.90;;
39882;SDS011;55824;52.220;21.040;2022-11-04T00:42:56;8.63;;;6.68;;
39882;SDS011;55824;52.220;21.040;2022-11-04T00:45:22;9.23;;;6.38;;
39882;SDS011;55824;52.220;21.040;2022-11-04T00:47:48;8.00;;;6.53;;
39882;SDS011;55824;52.220;21.040;2022-11-04T00:50:15;9.30;;;6.70;;
39882;SDS011;55824;52.220;21.040;2022-11-04T00:52:41;9.98;;;6.47;;
39882;SDS011;55824;52.220;21.040;2022-11-04T00:55:07;9.32;;;6.47;;
39882;SDS011;55824;52.220;21.040;2022-11-04T00:57:33;8.57;;;6.55;;
39882;SDS011;55824;52.220;21.040;2022-11-04T00:59:59;9.23;;;6.60;;
39882;SDS011;55824;52.220;21.040;2022-11-04T01:02:25;9.02;;;5.95;;
39882;SDS011;55824;52.220;21.040;2022-11-04T01:04:51;8.07;;;5.78;;
39882;SDS011;55824;52.220;21.040;2022-11-04T01:07:17;9.52;;;6.35;;
39882;SDS011;55824;52.220;21.040;2022-11-04T01:09:43;8.40;;;6.32;;
39882;SDS011;55824;52.220;21.040;2022-11-04T01:12:09;8.05;;;6.05;;
39882;SDS011;55824;52.220;21.040;2022-11-04T01:14:35;9.98;;;6.63;;
39882;SDS011;55824;52.220;21.040;2022-11-04T01:17:00;7.82;;;6.22;;
39882;SDS011;55824;52.220;21.040;2022-11-04T01:19:26;9.98;;;6.07;;
39882;SDS011;55824;52.220;21.040;2022-11-04T01:21:52;8.57;;;5.88;;
39882;SDS011;55824;52.220;21.040;2022-11-04T01:24:18;8.50;;;6.10;;
39882;SDS011;55824;52.220;21.040;2022-11-04T01:26:44;7.78;;;5.88;;
39882;SDS011;55824;52.220;21.040;2022-11-04T01:29:10;9.02;;;6.57;;
39882;SDS011;55824;52.220;21.040;2022-11-04T01:31:36;7.93;;;5.90;;
39882;SDS011;55824;52.220;21.040;2022-11-04T01:34:02;7.70;;;5.80;;
39882;SDS011;55824;52.220;21.040;2022-11-04T01:36:28;8.32;;;6.00;;
39882;SDS011;55824;52.220;21.040;2022-11-04T01:38:55;7.05;;;5.60;;
39882;SDS011;55824;52.220;21.040;2022-11-04T01:43:48;8.57;;;5.78;;
39882;SDS011;55824;52.220;21.040;2022-11-04T01:46:20;8.63;;;5.43;;
39882;SDS011;55824;52.220;21.040;2022-11-04T01:48:47;7.43;;;5.93;;
39882;SDS011;55824;52.220;21.040;2022-11-04T01:51:13;7.78;;;5.53;;
39882;SDS011;55824;52.220;21.040;2022-11-04T01:53:40;7.68;;;5.47;;
39882;SDS011;55824;52.220;21.040;2022-11-04T01:56:10;9.50;;;5.60;;
39882;SDS011;55824;52.220;21.040;2022-11-04T01:58:41;8.15;;;5.28;;
39882;SDS011;55824;52.220;21.040;2022-11-04T02:01:09;9.38;;;5.90;;
39882;SDS011;55824;52.220;21.040;2022-11-04T02:03:47;10.02;;;6.38;;
39882;SDS011;55824;52.220;21.040;2022-11-04T02:06:14;7.75;;;5.70;;
39882;SDS011;55824;52.220;21.040;2022-11-04T02:08:40;8.75;;;6.00;;
39882;SDS011;55824;52.220;21.040;2022-11-04T02:11:06;7.68;;;5.60;;
39882;SDS011;55824;52.220;21.040;2022-11-04T02:13:33;6.70;;;5.30;;
39882;SDS011;55824;52.220;21.040;2022-11-04T02:26:43;7.90;;;5.82;;
39882;SDS011;55824;52.220;21.040;2022-11-04T02:32:01;8.20;;;5.70;;
39882;SDS011;55824;52.220;21.040;2022-11-04T02:37:00;8.23;;;5.40;;
39882;SDS011;55824;52.220;21.040;2022-11-04T02:42:19;9.40;;;5.85;;
39882;SDS011;55824;52.220;21.040;2022-11-04T02:47:48;7.80;;;5.30;;
39882;SDS011;55824;52.220;21.040;2022-11-04T02:50:22;8.60;;;5.63;;
39882;SDS011;55824;52.220;21.040;2022-11-04T02:55:24;8.15;;;5.05;;
39882;SDS011;55824;52.220;21.040;2022-11-04T02:57:52;7.28;;;5.00;;
39882;SDS011;55824;52.220;21.040;2022-11-04T03:00:20;8.50;;;5.20;;
39882;SDS011;55824;52.220;21.040;2022-11-04T03:02:48;7.10;;;5.07;;
39882;SDS011;55824;52.220;21.040;2022-11-04T03:05:17;8.18;;;5.20;;
39882;SDS011;55824;52.220;21.040;2022-11-04T03:07:45;7.25;;;5.20;;
39882;SDS011;55824;52.220;21.040;2022-11-04T03:10:14;8.18;;;5.63;;
39882;SDS011;55824;52.220;21.040;2022-11-04T03:12:52;7.60;;;4.90;;
39882;SDS011;55824;52.220;21.040;2022-11-04T03:15:21;7.55;;;4.80;;
39882;SDS011;55824;52.220;21.040;2022-11-04T03:17:51;7.45;;;5.35;;
39882;SDS011;55824;52.220;21.040;2022-11-04T03:20:21;8.10;;;5.05;;
39882;SDS011;55824;52.220;21.040;2022-11-04T03:22:48;7.15;;;4.85;;
39882;SDS011;55824;52.220;21.040;2022-11-04T03:25:14;6.85;;;4.93;;
39882;SDS011;55824;52.220;21.040;2022-11-04T03:27:53;6.38;;;4.80;;
39882;SDS011;55824;52.220;21.040;2022-11-04T03:30:22;6.68;;;4.72;;
39882;SDS011;55824;52.220;21.040;2022-11-04T03:32:59;6.93;;;4.60;;
39882;SDS011;55824;52.220;21.040;2022-11-04T03:35:28;6.72;;;4.40;;
39882;SDS011;55824;52.220;21.040;2022-11-04T03:37:54;7.28;;;4.63;;
39882;SDS011;55824;52.220;21.040;2022-11-04T03:40:21;6.68;;;4.63;;
39882;SDS011;55824;52.220;21.040;2022-11-04T03:42:58;7.53;;;5.45;;
39882;SDS011;55824;52.220;21.040;2022-11-04T03:45:25;7.35;;;4.78;;
39882;SDS011;55824;52.220;21.040;2022-11-04T03:47:51;7.50;;;5.20;;
39882;SDS011;55824;52.220;21.040;2022-11-04T03:50:39;5.88;;;4.20;;
39882;SDS011;55824;52.220;21.040;2022-11-04T03:53:05;6.90;;;4.60;;
39882;SDS011;55824;52.220;21.040;2022-11-04T04:00:28;7.40;;;4.80;;
39882;SDS011;55824;52.220;21.040;2022-11-04T04:05:36;6.55;;;4.35;;
39882;SDS011;55824;52.220;21.040;2022-11-04T04:08:08;6.80;;;4.43;;
39882;SDS011;55824;52.220;21.040;2022-11-04T04:10:38;6.88;;;4.63;;
39882;SDS011;55824;52.220;21.040;2022-11-04T04:13:17;8.27;;;4.60;;
39882;SDS011;55824;52.220;21.040;2022-11-04T04:15:46;8.30;;;4.80;;
39882;SDS011;55824;52.220;21.040;2022-11-04T04:18:14;6.90;;;4.22;;
39882;SDS011;55824;52.220;21.040;2022-11-04T04:20:41;6.88;;;4.18;;
39882;SDS011;55824;52.220;21.040;2022-11-04T04:23:13;7.65;;;4.30;;
39882;SDS011;55824;52.220;21.040;2022-11-04T04:25:59;6.60;;;4.60;;
39882;SDS011;55824;52.220;21.040;2022-11-04T04:28:45;6.63;;;4.43;;
39882;SDS011;55824;52.220;21.040;2022-11-04T04:31:11;7.35;;;4.82;;
39882;SDS011;55824;52.220;21.040;2022-11-04T04:33:59;6.45;;;4.43;;
39882;SDS011;55824;52.220;21.040;2022-11-04T04:36:25;7.05;;;4.30;;
39882;SDS011;55824;52.220;21.040;2022-11-04T04:38:52;6.10;;;4.18;;
39882;SDS011;55824;52.220;21.040;2022-11-04T04:41:36;7.18;;;4.50;;
39882;SDS011;55824;52.220;21.040;2022-11-04T04:47:05;6.38;;;3.97;;
39882;SDS011;55824;52.220;21.040;2022-11-04T04:49:33;8.60;;;4.68;;
39882;SDS011;55824;52.220;21.040;2022-11-04T04:51:59;7.63;;;4.60;;
39882;SDS011;55824;52.220;21.040;2022-11-04T04:54:26;6.30;;;4.38;;
39882;SDS011;55824;52.220;21.040;2022-11-04T04:56:52;6.22;;;4.00;;
39882;SDS011;55824;52.220;21.040;2022-11-04T04:59:18;8.38;;;4.10;;
39882;SDS011;55824;52.220;21.040;2022-11-04T05:01:44;6.65;;;4.65;;
39882;SDS011;55824;52.220;21.040;2022-11-04T05:04:10;5.97;;;3.97;;
39882;SDS011;55824;52.220;21.040;2022-11-04T05:06:36;5.70;;;4.47;;
39882;SDS011;55824;52.220;21.040;2022-11-04T05:09:02;6.47;;;4.65;;
39882;SDS011;55824;52.220;21.040;2022-11-04T05:11:28;5.85;;;3.85;;
39882;SDS011;55824;52.220;21.040;2022-11-04T05:13:54;7.05;;;4.50;;
39882;SDS011;55824;52.220;21.040;2022-11-04T05:16:20;6.38;;;4.28;;
39882;SDS011;55824;52.220;21.040;2022-11-04T05:18:46;6.43;;;4.38;;
39882;SDS011;55824;52.220;21.040;2022-11-04T05:21:13;5.72;;;4.18;;
39882;SDS011;55824;52.220;21.040;2022-11-04T05:23:39;6.60;;;4.43;;
39882;SDS011;55824;52.220;21.040;2022-11-04T05:26:05;5.38;;;4.00;;
39882;SDS011;55824;52.220;21.040;2022-11-04T05:28:31;8.23;;;4.18;;
39882;SDS011;55824;52.220;21.040;2022-11-04T05:31:01;6.50;;;4.40;;
39882;SDS011;55824;52.220;21.040;2022-11-04T05:33:28;7.13;;;4.13;;
39882;SDS011;55824;52.220;21.040;2022-11-04T05:35:54;5.53;;;4.00;;
39882;SDS011;55824;52.220;21.040;2022-11-04T05:38:20;6.15;;;3.97;;
39882;SDS011;55824;52.220;21.040;2022-11-04T05:40:46;5.97;;;4.25;;
39882;SDS011;55824;52.220;21.040;2022-11-04T05:43:12;5.80;;;3.63;;
39882;SDS011;55824;52.220;21.040;2022-11-04T05:45:38;6.15;;;4.00;;
39882;SDS011;55824;52.220;21.040;2022-11-04T05:48:04;7.00;;;4.78;;
39882;SDS011;55824;52.220;21.040;2022-11-04T05:50:30;6.53;;;4.18;;
39882;SDS011;55824;52.220;21.040;2022-11-04T05:52:57;6.63;;;4.32;;
39882;SDS011;55824;52.220;21.040;2022-11-04T05:55:23;5.80;;;3.90;;
39882;SDS011;55824;52.220;21.040;2022-11-04T05:57:49;6.57;;;4.15;;
39882;SDS011;55824;52.220;21.040;2022-11-04T06:00:15;6.43;;;4.07;;
39882;SDS011;55824;52.220;21.040;2022-11-04T06:02:41;5.15;;;3.92;;
39882;SDS011;55824;52.220;21.040;2022-11-04T06:05:07;6.85;;;4.80;;
39882;SDS011;55824;52.220;21.040;2022-11-04T06:07:34;7.57;;;4.38;;
39882;SDS011;55824;52.220;21.040;2022-11-04T06:10:00;7.50;;;4.10;;
39882;SDS011;55824;52.220;21.040;2022-11-04T06:12:26;6.50;;;4.13;;
39882;SDS011;55824;52.220;21.040;2022-11-04T06:14:52;6.47;;;4.10;;
39882;SDS011;55824;52.220;21.040;2022-11-04T06:17:19;5.75;;;4.20;;
39882;SDS011;55824;52.220;21.040;2022-11-04T06:19:45;5.88;;;4.10;;
39882;SDS011;55824;52.220;21.040;2022-11-04T06:22:12;6.50;;;3.80;;
39882;SDS011;55824;52.220;21.040;2022-11-04T06:24:38;5.78;;;3.63;;
39882;SDS011;55824;52.220;21.040;2022-11-04T06:27:05;5.28;;;3.95;;
39882;SDS011;55824;52.220;21.040;2022-11-04T06:29:31;5.82;;;3.92;;
39882;SDS011;55824;52.220;21.040;2022-11-04T06:31:57;7.03;;;4.18;;
39882;SDS011;55824;52.220;21.040;2022-11-04T06:34:23;6.28;;;4.10;;
39882;SDS011;55824;52.220;21.040;2022-11-04T06:36:49;6.00;;;3.80;;
39882;SDS011;55824;52.220;21.040;2022-11-04T06:39:15;6.32;;;4.25;;
39882;SDS011;55824;52.220;21.040;2022-11-04T06:41:41;5.88;;;3.97;;
39882;SDS011;55824;52.220;21.040;2022-11-04T06:44:07;5.90;;;3.97;;
39882;SDS011;55824;52.220;21.040;2022-11-04T06:46:37;6.65;;;4.05;;
39882;SDS011;55824;52.220;21.040;2022-11-04T06:49:04;6.15;;;3.75;;
39882;SDS011;55824;52.220;21.040;2022-11-04T06:51:31;6.35;;;4.15;;
39882;SDS011;55824;52.220;21.040;2022-11-04T06:53:57;6.80;;;3.83;;
39882;SDS011;55824;52.220;21.040;2022-11-04T06:56:23;6.00;;;4.22;;
39882;SDS011;55824;52.220;21.040;2022-11-04T06:58:49;5.53;;;3.65;;
39882;SDS011;55824;52.220;21.040;2022-11-04T07:01:16;6.25;;;3.40;;
39882;SDS011;55824;52.220;21.040;2022-11-04T07:03:42;5.13;;;3.58;;
39882;SDS011;55824;52.220;21.040;2022-11-04T07:06:08;6.03;;;4.10;;
39882;SDS011;55824;52.220;21.040;2022-11-04T07:08:35;6.78;;;3.72;;
39882;SDS011;55824;52.220;21.040;2022-11-04T07:11:01;6.30;;;4.15;;
39882;SDS011;55824;52.220;21.040;2022-11-04T07:13:27;5.32;;;3.67;;
39882;SDS011;55824;52.220;21.040;2022-11-04T07:15:53;6.07;;;3.97;;
39882;SDS011;55824;52.220;21.040;2022-11-04T07:18:19;6.47;;;3.95;;
39882;SDS011;55824;52.220;21.040;2022-11-04T07:20:46;6.40;;;3.83;;
39882;SDS011;55824;52.220;21.040;2022-11-04T07:23:12;5.68;;;3.63;;
39882;SDS011;55824;52.220;21.040;2022-11-04T07:25:38;8.43;;;4.55;;
39882;SDS011;55824;52.220;21.040;2022-11-04T07:28:04;5.97;;;3.80;;
39882;SDS011;55824;52.220;21.040;2022-11-04T07:30:30;6.25;;;3.80;;
39882;SDS011;55824;52.220;21.040;2022-11-04T07:32:56;8.05;;;4.03;;
39882;SDS011;55824;52.220;21.040;2022-11-04T07:35:22;6.07;;;4.00;;
39882;SDS011;55824;52.220;21.040;2022-11-04T07:37:49;6.88;;;4.07;;
39882;SDS011;55824;52.220;21.040;2022-11-04T07:40:15;5.55;;;3.80;;
39882;SDS011;55824;52.220;21.040;2022-11-04T07:42:41;5.78;;;3.83;;
39882;SDS011;55824;52.220;21.040;2022-11-04T07:45:07;6.65;;;4.20;;
39882;SDS011;55824;52.220;21.040;2022-11-04T07:47:33;5.82;;;3.75;;
39882;SDS011;55824;52.220;21.040;2022-11-04T07:49:59;5.90;;;4.15;;
39882;SDS011;55824;52.220;21.040;2022-11-04T07:52:25;7.55;;;3.95;;
39882;SDS011;55824;52.220;21.040;2022-11-04T07:54:51;6.43;;;3.50;;
39882;SDS011;55824;52.220;21.040;2022-11-04T07:57:17;5.88;;;3.95;;
39882;SDS011;55824;52.220;21.040;2022-11-04T07:59:43;7.13;;;4.35;;
39882;SDS011;55824;52.220;21.040;2022-11-04T08:02:09;6.40;;;3.50;;
39882;SDS011;55824;52.220;21.040;2022-11-04T08:04:36;6.05;;;3.83;;
39882;SDS011;55824;52.220;21.040;2022-11-04T08:07:02;7.45;;;3.83;;
39882;SDS011;55824;52.220;21.040;2022-11-04T08:09:31;6.20;;;3.97;;
39882;SDS011;55824;52.220;21.040;2022-11-04T08:11:57;5.32;;;3.75;;
39882;SDS011;55824;52.220;21.040;2022-11-04T08:14:23;6.57;;;4.43;;
39882;SDS011;55824;52.220;21.040;2022-11-04T08:16:50;6.13;;;3.75;;
39882;SDS011;55824;52.220;21.040;2022-11-04T08:19:16;6.60;;;4.32;;
39882;SDS011;55824;52.220;21.040;2022-11-04T08:21:42;5.40;;;4.00;;
39882;SDS011;55824;52.220;21.040;2022-11-04T08:24:08;5.47;;;3.88;;
39882;SDS011;55824;52.220;21.040;2022-11-04T08:26:34;7.50;;;4.10;;
39882;SDS011;55824;52.220;21.040;2022-11-04T08:29:00;7.38;;;4.13;;
39882;SDS011;55824;52.220;21.040;2022-11-04T08:31:27;5.43;;;3.88;;
39882;SDS011;55824;52.220;21.040;2022-11-04T08:33:53;5.82;;;4.00;;
39882;SDS011;55824;52.220;21.040;2022-11-04T08:36:21;7.47;;;3.92;;
39882;SDS011;55824;52.220;21.040;2022-11-04T08:38:47;9.32;;;4.72;;
39882;SDS011;55824;52.220;21.040;2022-11-04T08:41:14;7.47;;;4.68;;
39882;SDS011;55824;52.220;21.040;2022-11-04T08:43:40;6.55;;;4.40;;
39882;SDS011;55824;52.220;21.040;2022-11-04T08:46:07;7.30;;;4.30;;
39882;SDS011;55824;52.220;21.040;2022-11-04T08:48:34;5.22;;;3.60;;
39882;SDS011;55824;52.220;21.040;2022-11-04T08:51:02;5.97;;;3.80;;
39882;SDS011;55824;52.220;21.040;2022-11-04T08:53:28;5.75;;;3.75;;
39882;SDS011;55824;52.220;21.040;2022-11-04T08:55:54;6.32;;;3.60;;
39882;SDS011;55824;52.220;21.040;2022-11-04T08:58:20;7.50;;;4.03;;
39882;SDS011;55824;52.220;21.040;2022-11-04T09:00:47;9.88;;;4.15;;
39882;SDS011;55824;52.220;21.040;2022-11-04T09:03:13;5.78;;;3.83;;
39882;SDS011;55824;52.220;21.040;2022-11-04T09:05:40;5.60;;;4.10;;
39882;SDS011;55824;52.220;21.040;2022-11-04T09:08:16;6.15;;;4.05;;
39882;SDS011;55824;52.220;21.040;2022-11-04T09:10:42;5.78;;;4.20;;
39882;SDS011;55824;52.220;21.040;2022-11-04T09:13:09;6.60;;;4.22;;
39882;SDS011;55824;52.220;21.040;2022-11-04T09:15:35;8.15;;;4.85;;
39882;SDS011;55824;52.220;21.040;2022-11-04T09:18:01;7.75;;;4.35;;
39882;SDS011;55824;52.220;21.040;2022-11-04T09:20:28;5.72;;;3.80;;
39882;SDS011;55824;52.220;21.040;2022-11-04T09:22:57;5.70;;;4.45;;
39882;SDS011;55824;52.220;21.040;2022-11-04T09:25:23;7.13;;;4.18;;
39882;SDS011;55824;52.220;21.040;2022-11-04T09:27:49;5.80;;;3.55;;
39882;SDS011;55824;52.220;21.040;2022-11-04T09:30:15;6.68;;;3.90;;
39882;SDS011;55824;52.220;21.040;2022-11-04T09:32:41;6.22;;;4.28;;
39882;SDS011;55824;52.220;21.040;2022-11-04T09:35:07;6.28;;;4.13;;
39882;SDS011;55824;52.220;21.040;2022-11-04T09:37:33;6.50;;;4.30;;
39882;SDS011;55824;52.220;21.040;2022-11-04T09:39:59;6.35;;;4.22;;
39882;SDS011;55824;52.220;21.040;2022-11-04T09:42:37;6.03;;;4.20;;
39882;SDS011;55824;52.220;21.040;2022-11-04T09:45:09;6.10;;;3.90;;
39882;SDS011;55824;52.220;21.040;2022-11-04T09:47:36;6.80;;;4.15;;
39882;SDS011;55824;52.220;21.040;2022-11-04T09:50:04;6.75;;;4.40;;
39882;SDS011;55824;52.220;21.040;2022-11-04T09:52:34;5.88;;;3.95;;
39882;SDS011;55824;52.220;21.040;2022-11-04T09:55:19;6.00;;;3.85;;
39882;SDS011;55824;52.220;21.040;2022-11-04T09:57:47;6.97;;;4.35;;
39882;SDS011;55824;52.220;21.040;2022-11-04T10:00:17;5.50;;;3.88;;
39882;SDS011;55824;52.220;21.040;2022-11-04T10:08:18;5.63;;;4.15;;
39882;SDS011;55824;52.220;21.040;2022-11-04T10:10:53;6.22;;;3.90;;
39882;SDS011;55824;52.220;21.040;2022-11-04T10:18:33;5.70;;;3.90;;
39882;SDS011;55824;52.220;21.040;2022-11-04T10:21:17;7.10;;;4.32;;
39882;SDS011;55824;52.220;21.040;2022-11-04T10:24:06;8.25;;;4.18;;
39882;SDS011;55824;52.220;21.040;2022-11-04T10:26:36;6.57;;;4.57;;
39882;SDS011;55824;52.220;21.040;2022-11-04T10:29:05;6.50;;;4.30;;
39882;SDS011;55824;52.220;21.040;2022-11-04T10:31:35;6.75;;;4.15;;
39882;SDS011;55824;52.220;21.040;2022-11-04T10:34:07;6.03;;;4.45;;
39882;SDS011;55824;52.220;21.040;2022-11-04T10:36:34;5.95;;;4.13;;
39882;SDS011;55824;52.220;21.040;2022-11-04T10:39:02;6.25;;;4.32;;
39882;SDS011;55824;52.220;21.040;2022-11-04T10:41:32;7.43;;;4.18;;
39882;SDS011;55824;52.220;21.040;2022-11-04T10:46:29;8.13;;;5.07;;
39882;SDS011;55824;52.220;21.040;2022-11-04T10:49:04;5.90;;;4.43;;
39882;SDS011;55824;52.220;21.040;2022-11-04T10:51:33;6.88;;;4.05;;
39882;SDS011;55824;52.220;21.040;2022-11-04T10:53:59;8.80;;;4.65;;
39882;SDS011;55824;52.220;21.040;2022-11-04T10:59:29;6.10;;;4.03;;
39882;SDS011;55824;52.220;21.040;2022-11-04T11:01:56;6.47;;;4.32;;
39882;SDS011;55824;52.220;21.040;2022-11-04T11:04:30;7.32;;;4.20;;
39882;SDS011;55824;52.220;21.040;2022-11-04T11:06:57;6.28;;;4.20;;
39882;SDS011;55824;52.220;21.040;2022-11-04T11:09:25;6.15;;;4.22;;
39882;SDS011;55824;52.220;21.040;2022-11-04T11:16:51;5.63;;;3.97;;
39882;SDS011;55824;52.220;21.040;2022-11-04T11:19:18;5.57;;;4.13;;
39882;SDS011;55824;52.220;21.040;2022-11-04T11:21:48;7.20;;;4.20;;
39882;SDS011;55824;52.220;21.040;2022-11-04T11:24:17;7.80;;;4.35;;
39882;SDS011;55824;52.220;21.040;2022-11-04T11:29:16;6.18;;;4.05;;
39882;SDS011;55824;52.220;21.040;2022-11-04T11:31:45;5.38;;;4.10;;
39882;SDS011;55824;52.220;21.040;2022-11-04T11:34:15;7.82;;;4.78;;
39882;SDS011;55824;52.220;21.040;2022-11-04T11:36:43;5.78;;;4.18;;
39882;SDS011;55824;52.220;21.040;2022-11-04T11:44:44;6.90;;;4.60;;
39882;SDS011;55824;52.220;21.040;2022-11-04T11:47:19;6.32;;;4.40;;
39882;SDS011;55824;52.220;21.040;2022-11-04T11:49:46;5.60;;;4.05;;
39882;SDS011;55824;52.220;21.040;2022-11-04T11:55:00;8.05;;;4.13;;
39882;SDS011;55824;52.220;21.040;2022-11-04T11:57:39;6.70;;;4.20;;
39882;SDS011;55824;52.220;21.040;2022-11-04T12:00:10;5.00;;;3.95;;
39882;SDS011;55824;52.220;21.040;2022-11-04T12:05:07;6.25;;;4.45;;
39882;SDS011;55824;52.220;21.040;2022-11-04T12:10:02;5.70;;;3.97;;
39882;SDS011;55824;52.220;21.040;2022-11-04T12:20:02;6.88;;;4.25;;
39882;SDS011;55824;52.220;21.040;2022-11-04T12:35:21;6.57;;;4.67;;
39882;SDS011;55824;52.220;21.040;2022-11-04T12:47:59;5.32;;;4.00;;
39882;SDS011;55824;52.220;21.040;2022-11-04T12:50:32;5.72;;;4.22;;
39882;SDS011;55824;52.220;21.040;2022-11-04T13:01:06;6.78;;;4.15;;
39882;SDS011;55824;52.220;21.040;2022-11-04T13:03:48;6.13;;;4.35;;
39882;SDS011;55824;52.220;21.040;2022-11-04T13:06:16;7.03;;;4.53;;
39882;SDS011;55824;52.220;21.040;2022-11-04T13:08:48;5.60;;;4.07;;
39882;SDS011;55824;52.220;21.040;2022-11-04T13:11:23;7.00;;;4.25;;
39882;SDS011;55824;52.220;21.040;2022-11-04T13:16:19;6.43;;;4.45;;
39882;SDS011;55824;52.220;21.040;2022-11-04T13:18:46;7.13;;;4.55;;
39882;SDS011;55824;52.220;21.040;2022-11-04T13:21:17;5.85;;;4.30;;
39882;SDS011;55824;52.220;21.040;2022-11-04T13:26:17;6.40;;;3.83;;
39882;SDS011;55824;52.220;21.040;2022-11-04T13:28:44;5.50;;;3.85;;
39882;SDS011;55824;52.220;21.040;2022-11-04T13:33:50;7.50;;;3.90;;
39882;SDS011;55824;52.220;21.040;2022-11-04T13:36:32;6.70;;;4.82;;
39882;SDS011;55824;52.220;21.040;2022-11-04T13:39:05;6.03;;;4.15;;
39882;SDS011;55824;52.220;21.040;2022-11-04T13:41:41;6.20;;;4.25;;
39882;SDS011;55824;52.220;21.040;2022-11-04T13:44:23;6.25;;;3.70;;
39882;SDS011;55824;52.220;21.040;2022-11-04T13:46:51;6.32;;;4.20;;
39882;SDS011;55824;52.220;21.040;2022-11-04T13:49:25;5.93;;;4.07;;
39882;SDS011;55824;52.220;21.040;2022-11-04T13:52:00;5.93;;;3.72;;
39882;SDS011;55824;52.220;21.040;2022-11-04T13:57:09;6.10;;;3.85;;
39882;SDS011;55824;52.220;21.040;2022-11-04T13:59:36;5.30;;;3.83;;
39882;SDS011;55824;52.220;21.040;2022-11-04T14:04:44;6.45;;;4.05;;
39882;SDS011;55824;52.220;21.040;2022-11-04T14:07:11;6.60;;;4.65;;
39882;SDS011;55824;52.220;21.040;2022-11-04T14:14:42;6.97;;;4.70;;
39882;SDS011;55824;52.220;21.040;2022-11-04T14:19:58;6.80;;;5.13;;
39882;SDS011;55824;52.220;21.040;2022-11-04T14:27:44;6.05;;;4.45;;
39882;SDS011;55824;52.220;21.040;2022-11-04T14:33:00;7.38;;;5.05;;
39882;SDS011;55824;52.220;21.040;2022-11-04T14:35:26;8.20;;;4.57;;
39882;SDS011;55824;52.220;21.040;2022-11-04T14:37:53;6.75;;;4.55;;
39882;SDS011;55824;52.220;21.040;2022-11-04T14:40:27;6.80;;;4.32;;
39882;SDS011;55824;52.220;21.040;2022-11-04T14:42:54;6.82;;;4.95;;
39882;SDS011;55824;52.220;21.040;2022-11-04T14:45:25;6.22;;;4.45;;
39882;SDS011;55824;52.220;21.040;2022-11-04T14:47:54;6.22;;;4.45;;
39882;SDS011;55824;52.220;21.040;2022-11-04T14:50:25;6.65;;;4.22;;
39882;SDS011;55824;52.220;21.040;2022-11-04T14:57:45;7.90;;;4.65;;
39882;SDS011;55824;52.220;21.040;2022-11-04T15:05:26;6.30;;;4.60;;
39882;SDS011;55824;52.220;21.040;2022-11-04T15:08:00;8.13;;;4.38;;
39882;SDS011;55824;52.220;21.040;2022-11-04T15:10:27;6.30;;;4.10;;
39882;SDS011;55824;52.220;21.040;2022-11-04T15:12:57;6.72;;;3.88;;
39882;SDS011;55824;52.220;21.040;2022-11-04T15:17:51;5.43;;;4.07;;
39882;SDS011;55824;52.220;21.040;2022-11-04T15:20:22;6.57;;;4.20;;
39882;SDS011;55824;52.220;21.040;2022-11-04T15:22:48;6.10;;;4.35;;
39882;SDS011;55824;52.220;21.040;2022-11-04T15:25:14;5.43;;;4.22;;
39882;SDS011;55824;52.220;21.040;2022-11-04T15:27:41;6.30;;;3.53;;
39882;SDS011;55824;52.220;21.040;2022-11-04T15:30:16;7.60;;;4.70;;
39882;SDS011;55824;52.220;21.040;2022-11-04T15:32:53;5.68;;;4.25;;
39882;SDS011;55824;52.220;21.040;2022-11-04T15:35:20;6.55;;;4.80;;
39882;SDS011;55824;52.220;21.040;2022-11-04T15:37:46;6.70;;;4.72;;
39882;SDS011;55824;52.220;21.040;2022-11-04T15:40:13;6.68;;;4.70;;
39882;SDS011;55824;52.220;21.040;2022-11-04T15:42:41;5.88;;;3.88;;
39882;SDS011;55824;52.220;21.040;2022-11-04T15:45:29;7.80;;;4.00;;
39882;SDS011;55824;52.220;21.040;2022-11-04T15:50:39;7.05;;;4.70;;
39882;SDS011;55824;52.220;21.040;2022-11-04T15:53:07;5.70;;;3.75;;
39882;SDS011;55824;52.220;21.040;2022-11-04T15:55:34;6.82;;;4.60;;
39882;SDS011;55824;52.220;21.040;2022-11-04T15:58:01;7.20;;;4.10;;
39882;SDS011;55824;52.220;21.040;2022-11-04T16:00:27;7.13;;;4.55;;
39882;SDS011;55824;52.220;21.040;2022-11-04T16:02:58;8.35;;;4.70;;
39882;SDS011;55824;52.220;21.040;2022-11-04T16:07:50;7.40;;;4.57;;
39882;SDS011;55824;52.220;21.040;2022-11-04T16:10:30;6.70;;;4.32;;
39882;SDS011;55824;52.220;21.040;2022-11-04T16:18:38;8.20;;;4.93;;
39882;SDS011;55824;52.220;21.040;2022-11-04T16:21:48;8.52;;;5.30;;
39882;SDS011;55824;52.220;21.040;2022-11-04T16:23:50;6.53;;;4.78;;
39882;SDS011;55824;52.220;21.040;2022-11-04T16:26:22;6.43;;;4.50;;
39882;SDS011;55824;52.220;21.040;2022-11-04T16:28:51;7.43;;;4.53;;
39882;SDS011;55824;52.220;21.040;2022-11-04T16:33:47;7.00;;;4.82;;
39882;SDS011;55824;52.220;21.040;2022-11-04T16:36:13;6.53;;;4.70;;
39882;SDS011;55824;52.220;21.040;2022-11-04T16:38:54;6.28;;;4.65;;
39882;SDS011;55824;52.220;21.040;2022-11-04T16:41:22;7.75;;;4.72;;
39882;SDS011;55824;52.220;21.040;2022-11-04T16:43:48;6.85;;;4.68;;
39882;SDS011;55824;52.220;21.040;2022-11-04T16:46:14;6.03;;;4.20;;
39882;SDS011;55824;52.220;21.040;2022-11-04T16:48:41;5.70;;;4.68;;
39882;SDS011;55824;52.220;21.040;2022-11-04T16:51:10;8.18;;;4.80;;
39882;SDS011;55824;52.220;21.040;2022-11-04T16:53:38;7.55;;;4.38;;
39882;SDS011;55824;52.220;21.040;2022-11-04T16:56:05;6.60;;;4.65;;
39882;SDS011;55824;52.220;21.040;2022-11-04T16:58:31;9.02;;;5.38;;
39882;SDS011;55824;52.220;21.040;2022-11-04T17:00:57;10.05;;;4.80;;
39882;SDS011;55824;52.220;21.040;2022-11-04T17:03:23;9.45;;;5.25;;
39882;SDS011;55824;52.220;21.040;2022-11-04T17:05:53;7.95;;;5.03;;
39882;SDS011;55824;52.220;21.040;2022-11-04T17:08:20;7.20;;;4.72;;
39882;SDS011;55824;52.220;21.040;2022-11-04T17:10:46;7.28;;;4.43;;
39882;SDS011;55824;52.220;21.040;2022-11-04T17:13:12;12.15;;;5.10;;
39882;SDS011;55824;52.220;21.040;2022-11-04T17:15:38;9.82;;;5.32;;
39882;SDS011;55824;52.220;21.040;2022-11-04T17:18:05;9.05;;;5.47;;
39882;SDS011;55824;52.220;21.040;2022-11-04T17:20:31;10.07;;;6.05;;
39882;SDS011;55824;52.220;21.040;2022-11-04T17:22:58;7.82;;;4.72;;
39882;SDS011;55824;52.220;21.040;2022-11-04T17:25:25;7.97;;;5.50;;
39882;SDS011;55824;52.220;21.040;2022-11-04T17:27:51;9.23;;;4.65;;
39882;SDS011;55824;52.220;21.040;2022-11-04T17:30:18;8.80;;;4.90;;